Time;durP1;ratioP1;P1;durP2;ratioP2;P2;SDS_P1;SDS_P2;PMS_P1;PMS_P2;Temp;Humidity;BMP_temperature;BMP_pressure;BME280_temperature;BME280_humidity;BME280_pressure;Samples;Min_cycle;Max_cycle;Signal;HPM_P1;HPM_P2
2021/12/26 00:02:07;;;;;;;0.52;0.52;;;18.20;36.00;;;;;;5114069;28;20626;-84
2021/12/26 00:04:33;;;;;;;0.85;0.47;;;18.20;36.10;;;;;;5080081;28;20179;-84
2021/12/26 00:06:59;;;;;;;0.80;0.70;;;18.20;36.10;;;;;;5096632;28;20154;-84
2021/12/26 00:09:27;;;;;;;0.63;0.43;;;18.20;36.10;;;;;;5096933;28;20195;-84
2021/12/26 00:11:53;;;;;;;1.40;0.70;;;18.20;36.10;;;;;;5114847;28;20560;-84
2021/12/26 00:14:19;;;;;;;0.50;0.50;;;18.20;36.20;;;;;;5096559;28;20184;-84
2021/12/26 00:16:45;;;;;;;0.80;0.68;;;18.20;36.20;;;;;;5096337;28;20156;-84
2021/12/26 00:19:11;;;;;;;0.43;0.43;;;18.20;36.00;;;;;;5096961;28;20152;-85
2021/12/26 00:21:36;;;;;;;0.50;0.50;;;18.20;36.10;;;;;;5079824;28;20587;-84
2021/12/26 00:24:02;;;;;;;0.60;0.60;;;18.10;36.10;;;;;;5079374;28;20168;-84
2021/12/26 00:26:30;;;;;;;0.68;0.65;;;18.20;36.30;;;;;;5079048;28;20167;-84
2021/12/26 00:28:56;;;;;;;0.55;0.55;;;18.20;36.20;;;;;;5096796;28;20187;-84
2021/12/26 00:31:22;;;;;;;0.50;0.50;;;18.20;36.20;;;;;;5096176;28;20148;-84
2021/12/26 00:33:50;;;;;;;0.60;0.60;;;18.20;36.30;;;;;;5096337;28;20160;-84
2021/12/26 00:36:16;;;;;;;0.50;0.50;;;18.10;36.30;;;;;;5096122;28;20285;-85
2021/12/26 00:38:42;;;;;;;0.50;0.50;;;18.10;36.30;;;;;;5096228;28;20182;-84
2021/12/26 00:41:08;;;;;;;0.40;0.40;;;18.10;36.30;;;;;;5096213;28;20235;-84
2021/12/26 00:43:34;;;;;;;0.40;0.40;;;18.10;36.40;;;;;;5114911;28;20163;-84
2021/12/26 00:46:00;;;;;;;0.55;0.55;;;18.20;36.30;;;;;;5125522;27;20223;-84
2021/12/26 00:48:26;;;;;;;0.40;0.40;;;18.10;36.20;;;;;;5117020;28;20187;-84
2021/12/26 00:50:52;;;;;;;0.75;0.60;;;18.10;36.30;;;;;;5117612;28;20227;-84
2021/12/26 00:53:19;;;;;;;0.52;0.52;;;18.10;36.40;;;;;;5117306;28;20152;-84
2021/12/26 00:55:45;;;;;;;0.65;0.60;;;18.10;36.40;;;;;;5116986;28;20162;-84
2021/12/26 00:58:11;;;;;;;0.70;0.68;;;18.00;36.50;;;;;;5100443;28;20159;-84
2021/12/26 01:00:39;;;;;;;0.50;0.50;;;18.00;36.50;;;;;;5117067;28;20156;-85
2021/12/26 01:03:05;;;;;;;0.93;0.68;;;18.00;36.50;;;;;;5117001;28;20180;-84
2021/12/26 01:05:31;;;;;;;0.55;0.55;;;18.00;36.40;;;;;;5116843;28;20187;-84
2021/12/26 01:07:59;;;;;;;0.60;0.55;;;18.00;36.50;;;;;;5116796;28;20183;-84
2021/12/26 01:10:28;;;;;;;0.55;0.55;;;18.00;36.50;;;;;;5116952;28;20603;-84
2021/12/26 01:12:55;;;;;;;0.43;0.43;;;18.00;36.40;;;;;;5117286;27;20167;-84
2021/12/26 01:15:23;;;;;;;0.70;0.60;;;18.00;36.50;;;;;;5116634;28;20140;-85
2021/12/26 01:17:55;;;;;;;0.50;0.50;;;18.00;36.70;;;;;;5116892;28;20184;-84
2021/12/26 01:20:39;;;;;;;0.80;0.68;;;18.00;36.50;;;;;;5116818;28;20633;-84
2021/12/26 01:23:05;;;;;;;0.50;0.50;;;18.00;36.50;;;;;;5118295;27;20690;-84
2021/12/26 01:25:32;;;;;;;0.45;0.45;;;18.00;36.50;;;;;;5100202;28;20184;-84
2021/12/26 01:27:58;;;;;;;1.00;0.70;;;18.00;36.60;;;;;;5116226;28;20228;-84
2021/12/26 01:30:25;;;;;;;0.60;0.60;;;18.00;36.60;;;;;;5100157;28;20251;-84
2021/12/26 01:32:53;;;;;;;0.47;0.47;;;17.90;36.60;;;;;;5116310;28;20196;-85
2021/12/26 01:35:20;;;;;;;0.57;0.57;;;18.00;36.60;;;;;;5099015;28;20163;-85
2021/12/26 01:37:46;;;;;;;0.73;0.60;;;17.90;36.60;;;;;;5115932;28;20160;-86
2021/12/26 01:40:11;;;;;;;0.60;0.60;;;17.90;36.60;;;;;;5099388;28;20171;-85
2021/12/26 01:42:38;;;;;;;0.60;0.60;;;17.90;36.60;;;;;;5115959;28;20238;-85
2021/12/26 01:45:06;;;;;;;0.95;0.50;;;17.90;36.60;;;;;;5098960;28;20219;-85
2021/12/26 01:47:33;;;;;;;0.50;0.50;;;17.90;36.60;;;;;;5115999;28;20214;-84
2021/12/26 01:49:59;;;;;;;0.60;0.60;;;17.90;36.70;;;;;;5150422;27;20176;-85
2021/12/26 01:52:28;;;;;;;0.60;0.60;;;17.90;36.70;;;;;;5150435;27;20180;-85
2021/12/26 01:55:21;;;;;;;0.60;0.57;;;17.90;36.80;;;;;;5132643;27;20169;-85
2021/12/26 01:57:40;;;;;;;0.98;0.70;;;17.90;36.70;;;;;;5116910;28;20540;-86
2021/12/26 02:00:08;;;;;;;0.50;0.50;;;17.90;36.80;;;;;;5150540;27;20160;-85
2021/12/26 02:02:35;;;;;;;0.50;0.50;;;17.90;36.70;;;;;;5150167;27;20629;-85
2021/12/26 02:05:00;;;;;;;0.60;0.60;;;17.90;36.80;;;;;;5150306;27;20160;-85
2021/12/26 02:07:26;;;;;;;0.50;0.50;;;17.90;36.70;;;;;;5149890;27;20160;-85
2021/12/26 02:09:52;;;;;;;0.50;0.50;;;17.90;36.70;;;;;;5132520;27;20626;-85
2021/12/26 02:12:18;;;;;;;0.70;0.50;;;17.90;36.80;;;;;;5115360;28;20210;-86
2021/12/26 02:14:45;;;;;;;0.70;0.70;;;17.90;36.70;;;;;;5149984;27;20172;-86
2021/12/26 02:17:11;;;;;;;0.60;0.52;;;17.90;36.70;;;;;;5115963;28;20213;-85
2021/12/26 02:19:41;;;;;;;0.50;0.50;;;17.90;36.90;;;;;;5149925;27;20164;-85
2021/12/26 02:22:16;;;;;;;0.50;0.50;;;17.90;36.80;;;;;;5132630;27;20164;-85
2021/12/26 02:27:38;;;;;;;0.50;0.50;;;17.90;36.80;;;;;;5144346;27;20274;-85
2021/12/26 02:30:07;;;;;;;0.60;0.60;;;17.80;36.90;;;;;;5130982;27;20155;-85
2021/12/26 02:32:34;;;;;;;0.73;0.70;;;17.90;36.90;;;;;;5149285;27;20175;-85
2021/12/26 02:34:59;;;;;;;0.50;0.50;;;17.80;36.90;;;;;;5149438;27;20163;-85
2021/12/26 02:37:26;;;;;;;0.55;0.55;;;17.80;36.70;;;;;;5132386;27;20156;-85
2021/12/26 02:39:52;;;;;;;0.75;0.60;;;17.80;36.90;;;;;;5132264;27;20167;-85
2021/12/26 02:42:20;;;;;;;0.57;0.57;;;17.80;37.00;;;;;;5132125;27;20168;-85
2021/12/26 02:44:46;;;;;;;0.50;0.50;;;17.90;36.90;;;;;;5132518;27;20239;-86
2021/12/26 02:47:12;;;;;;;1.10;0.70;;;17.80;36.80;;;;;;5097927;28;20205;-85
2021/12/26 02:49:38;;;;;;;0.60;0.60;;;17.90;36.80;;;;;;5098238;28;20188;-85
2021/12/26 02:52:04;;;;;;;0.55;0.50;;;17.90;36.80;;;;;;5097618;28;20213;-85
2021/12/26 02:54:30;;;;;;;0.40;0.40;;;17.80;36.90;;;;;;5097438;28;20530;-85
2021/12/26 02:56:56;;;;;;;0.50;0.50;;;17.80;36.90;;;;;;5097822;28;20182;-85
2021/12/26 02:59:22;;;;;;;0.50;0.50;;;17.70;36.80;;;;;;5097786;28;20155;-85
2021/12/26 03:01:47;;;;;;;0.60;0.52;;;17.90;36.90;;;;;;5114268;28;20187;-85
2021/12/26 03:04:15;;;;;;;0.45;0.45;;;17.80;36.90;;;;;;5097395;28;20160;-85
2021/12/26 03:06:55;;;;;;;0.70;0.57;;;17.80;36.90;;;;;;5097137;28;20192;-85
2021/12/26 03:09:26;;;;;;;0.50;0.50;;;17.80;36.90;;;;;;5099261;28;20187;-85
2021/12/26 03:11:52;;;;;;;0.50;0.50;;;17.80;37.00;;;;;;5114296;28;20610;-85
2021/12/26 03:14:18;;;;;;;0.60;0.50;;;17.70;36.90;;;;;;5097317;28;20152;-85
2021/12/26 03:16:47;;;;;;;0.60;0.60;;;17.70;36.90;;;;;;5097880;28;20159;-85
2021/12/26 03:19:13;;;;;;;0.50;0.50;;;17.80;36.90;;;;;;5097378;28;20160;-85
2021/12/26 03:21:39;;;;;;;0.55;0.55;;;17.70;37.00;;;;;;5097228;28;20251;-85
2021/12/26 03:24:05;;;;;;;0.52;0.52;;;17.70;37.00;;;;;;5097327;28;20183;-85
2021/12/26 03:26:31;;;;;;;0.50;0.50;;;17.70;37.10;;;;;;5097355;28;20164;-85
2021/12/26 03:28:57;;;;;;;0.50;0.50;;;17.70;37.10;;;;;;5096764;28;20199;-85
2021/12/26 03:31:23;;;;;;;0.60;0.60;;;17.70;37.20;;;;;;5097099;28;20159;-85
2021/12/26 03:33:49;;;;;;;0.70;0.70;;;17.70;37.20;;;;;;5096934;28;20180;-85
2021/12/26 03:36:16;;;;;;;0.55;0.50;;;17.70;37.30;;;;;;5097013;28;20163;-85
2021/12/26 03:38:41;;;;;;;0.52;0.52;;;17.70;37.10;;;;;;5097112;28;20167;-85
2021/12/26 03:41:07;;;;;;;0.50;0.50;;;17.70;37.00;;;;;;5096839;28;20161;-86
2021/12/26 03:43:33;;;;;;;0.70;0.60;;;17.70;36.90;;;;;;5097408;28;20160;-85
2021/12/26 03:45:59;;;;;;;0.65;0.65;;;17.70;36.90;;;;;;5096586;28;20227;-85
2021/12/26 03:48:25;;;;;;;0.50;0.50;;;17.70;36.90;;;;;;5079834;28;20196;-85
2021/12/26 03:50:53;;;;;;;0.68;0.68;;;17.70;37.00;;;;;;5096984;28;20202;-85
2021/12/26 03:53:19;;;;;;;0.50;0.50;;;17.70;37.00;;;;;;5096817;28;20173;-85
2021/12/26 03:55:45;;;;;;;0.60;0.60;;;17.70;36.90;;;;;;5079890;28;20529;-85
2021/12/26 03:58:11;;;;;;;0.65;0.60;;;17.80;36.80;;;;;;5096799;28;20175;-85
2021/12/26 04:00:36;;;;;;;0.75;0.60;;;17.80;36.90;;;;;;5096495;28;20156;-85
2021/12/26 04:03:02;;;;;;;0.60;0.60;;;17.80;37.00;;;;;;5096480;28;20167;-85
2021/12/26 04:05:28;;;;;;;0.45;0.45;;;17.70;36.90;;;;;;5096290;28;20148;-85
2021/12/26 04:07:54;;;;;;;0.50;0.50;;;17.70;36.90;;;;;;5096225;28;20241;-85
2021/12/26 04:10:22;;;;;;;0.50;0.50;;;17.70;37.00;;;;;;5096314;28;20148;-85
2021/12/26 04:12:50;;;;;;;0.70;0.60;;;17.70;37.10;;;;;;5096486;28;20194;-85
2021/12/26 04:15:19;;;;;;;0.55;0.55;;;17.80;37.10;;;;;;5096533;28;20179;-86
2021/12/26 04:17:45;;;;;;;0.60;0.50;;;17.80;37.10;;;;;;5096139;28;20515;-85
2021/12/26 04:20:12;;;;;;;0.50;0.50;;;17.70;36.90;;;;;;5095845;28;20603;-85
2021/12/26 04:22:39;;;;;;;0.68;0.60;;;17.70;37.00;;;;;;5096117;28;20310;-85
2021/12/26 04:25:07;;;;;;;0.40;0.40;;;17.70;37.00;;;;;;5096136;28;20270;-85
2021/12/26 04:27:34;;;;;;;0.50;0.50;;;17.70;37.00;;;;;;5096004;28;20148;-85
2021/12/26 04:30:00;;;;;;;0.70;0.68;;;17.70;37.00;;;;;;5096210;28;20168;-85
2021/12/26 04:32:25;;;;;;;0.60;0.60;;;17.70;36.90;;;;;;5095979;28;20202;-85
2021/12/26 04:34:51;;;;;;;0.45;0.45;;;17.70;37.00;;;;;;5096271;28;20598;-85
2021/12/26 04:37:17;;;;;;;0.70;0.63;;;17.70;37.00;;;;;;5096608;28;20164;-85
2021/12/26 04:39:42;;;;;;;0.70;0.70;;;17.70;37.00;;;;;;5096077;28;20163;-85
2021/12/26 04:42:08;;;;;;;0.50;0.50;;;17.70;36.90;;;;;;5095981;28;20164;-85
2021/12/26 04:44:34;;;;;;;0.95;0.50;;;17.70;37.00;;;;;;5096076;28;20152;-85
2021/12/26 04:47:06;;;;;;;0.60;0.50;;;17.70;37.00;;;;;;5095892;28;20657;-85
2021/12/26 04:49:33;;;;;;;0.50;0.50;;;17.70;37.00;;;;;;5096134;28;20206;-85
2021/12/26 04:51:59;;;;;;;0.60;0.60;;;17.70;37.00;;;;;;5096553;28;20164;-85
2021/12/26 04:54:25;;;;;;;0.40;0.40;;;17.70;37.80;;;;;;5097264;28;20217;-85
2021/12/26 04:56:50;;;;;;;0.77;0.50;;;17.60;37.10;;;;;;5096624;28;20164;-86
2021/12/26 04:59:17;;;;;;;0.50;0.50;;;17.70;37.10;;;;;;5080021;28;20168;-85
2021/12/26 05:01:43;;;;;;;0.60;0.60;;;17.60;37.10;;;;;;5096715;28;20160;-85
2021/12/26 05:04:10;;;;;;;0.50;0.47;;;17.70;37.80;;;;;;5097318;28;20515;-85
2021/12/26 05:06:35;;;;;;;0.63;0.50;;;17.70;37.20;;;;;;5096897;28;20160;-85
2021/12/26 05:09:01;;;;;;;0.50;0.50;;;17.60;37.10;;;;;;5097287;28;20248;-85
2021/12/26 05:11:28;;;;;;;0.60;0.50;;;17.60;37.00;;;;;;5097645;28;20159;-85
2021/12/26 05:13:55;;;;;;;1.33;0.70;;;17.70;37.10;;;;;;5097551;28;20648;-85
2021/12/26 05:16:20;;;;;;;0.52;0.52;;;17.60;37.10;;;;;;5097125;28;20171;-85
2021/12/26 05:18:47;;;;;;;0.93;0.60;;;17.60;37.20;;;;;;5098073;28;20164;-85
2021/12/26 05:21:14;;;;;;;1.00;0.60;;;17.60;37.20;;;;;;5098849;28;20168;-85
2021/12/26 05:23:39;;;;;;;0.65;0.60;;;17.60;37.20;;;;;;5097091;28;20170;-85
2021/12/26 05:26:06;;;;;;;0.45;0.45;;;17.60;37.20;;;;;;5097329;28;20171;-85
2021/12/26 05:28:34;;;;;;;0.57;0.50;;;17.70;37.10;;;;;;5097242;28;20211;-86
2021/12/26 05:31:00;;;;;;;0.50;0.50;;;17.60;37.10;;;;;;5099924;28;20173;-85
2021/12/26 05:33:25;;;;;;;0.80;0.73;;;17.60;37.00;;;;;;5101068;28;20160;-85
2021/12/26 05:35:51;;;;;;;0.43;0.43;;;17.60;37.10;;;;;;5101700;28;20674;-85
2021/12/26 05:38:17;;;;;;;0.50;0.50;;;17.60;37.20;;;;;;5084562;28;20168;-85
2021/12/26 05:40:42;;;;;;;0.60;0.50;;;17.60;37.10;;;;;;5101336;28;20159;-85
2021/12/26 05:43:08;;;;;;;0.50;0.50;;;17.60;37.00;;;;;;5100452;28;20158;-85
2021/12/26 05:45:34;;;;;;;0.60;0.60;;;17.60;37.10;;;;;;5101227;28;20295;-85
2021/12/26 05:47:59;;;;;;;0.55;0.55;;;17.60;37.10;;;;;;5100912;28;20712;-85
2021/12/26 05:50:26;;;;;;;0.57;0.55;;;17.70;37.20;;;;;;5100759;28;20557;-85
2021/12/26 05:52:54;;;;;;;0.70;0.60;;;17.60;37.10;;;;;;5101153;28;20160;-85
2021/12/26 05:55:21;;;;;;;0.68;0.65;;;17.60;37.20;;;;;;5100834;28;20157;-85
2021/12/26 05:57:47;;;;;;;0.65;0.60;;;17.60;37.10;;;;;;5100655;28;20148;-84
2021/12/26 06:00:17;;;;;;;0.60;0.60;;;17.60;37.00;;;;;;5100636;28;20168;-85
2021/12/26 06:02:45;;;;;;;0.50;0.50;;;17.60;37.10;;;;;;5101087;28;20206;-85
2021/12/26 06:05:10;;;;;;;0.68;0.68;;;17.60;37.10;;;;;;5101277;28;20156;-85
2021/12/26 06:07:36;;;;;;;0.60;0.50;;;17.60;37.00;;;;;;5101109;28;20213;-85
2021/12/26 06:10:04;;;;;;;0.45;0.40;;;17.60;37.00;;;;;;5117507;28;20259;-85
2021/12/26 06:12:31;;;;;;;0.60;0.60;;;17.60;37.00;;;;;;5100963;28;20258;-84
2021/12/26 06:14:57;;;;;;;0.60;0.60;;;17.60;37.10;;;;;;5100844;28;20160;-84
2021/12/26 06:17:27;;;;;;;0.47;0.45;;;17.60;37.20;;;;;;5101808;28;20162;-85
2021/12/26 06:19:54;;;;;;;0.43;0.43;;;17.60;37.00;;;;;;5104820;28;20163;-85
2021/12/26 06:22:20;;;;;;;0.80;0.60;;;17.60;36.90;;;;;;5102641;28;20534;-84
2021/12/26 06:24:45;;;;;;;0.70;0.70;;;17.60;37.00;;;;;;5101932;28;20156;-85
2021/12/26 06:27:13;;;;;;;0.73;0.60;;;17.60;37.10;;;;;;5103133;28;20152;-85
2021/12/26 06:29:40;;;;;;;0.52;0.50;;;17.60;37.10;;;;;;5107134;28;20208;-84
2021/12/26 06:32:07;;;;;;;0.55;0.52;;;17.60;37.10;;;;;;5104243;28;20214;-84
2021/12/26 06:34:32;;;;;;;0.70;0.57;;;17.60;37.30;;;;;;5103199;28;20164;-84
2021/12/26 06:36:58;;;;;;;0.50;0.50;;;17.60;37.20;;;;;;5102786;28;20148;-85
2021/12/26 06:39:25;;;;;;;1.05;0.60;;;17.50;37.10;;;;;;5103494;28;20164;-84
2021/12/26 06:41:50;;;;;;;0.70;0.60;;;17.60;37.20;;;;;;5085474;28;20260;-85
2021/12/26 06:44:16;;;;;;;0.90;0.60;;;17.60;37.20;;;;;;5107092;28;20602;-84
2021/12/26 06:46:43;;;;;;;0.60;0.60;;;17.50;37.20;;;;;;5124533;27;20276;-84
2021/12/26 06:49:08;;;;;;;0.50;0.50;;;17.60;37.30;;;;;;5130266;27;20210;-84
2021/12/26 06:51:34;;;;;;;0.68;0.68;;;17.50;37.20;;;;;;5128823;27;20174;-84
2021/12/26 06:54:00;;;;;;;2.05;0.70;;;17.60;37.20;;;;;;5130811;27;20676;-84
2021/12/26 06:56:26;;;;;;;0.73;0.50;;;17.60;37.30;;;;;;5129736;27;20158;-84
2021/12/26 06:58:51;;;;;;;1.67;0.57;;;17.60;37.10;;;;;;5129236;27;20175;-84
2021/12/26 07:01:17;;;;;;;0.47;0.40;;;17.50;37.20;;;;;;5129071;27;20664;-83
2021/12/26 07:03:43;;;;;;;0.70;0.68;;;17.60;37.20;;;;;;5112347;27;20269;-84
2021/12/26 07:06:10;;;;;;;0.60;0.60;;;17.60;37.10;;;;;;5129095;27;20155;-84
2021/12/26 07:08:36;;;;;;;0.95;0.60;;;17.60;37.20;;;;;;5129351;27;20276;-84
2021/12/26 07:11:02;;;;;;;0.50;0.50;;;17.60;37.10;;;;;;5129645;27;20156;-84
2021/12/26 07:13:27;;;;;;;0.80;0.60;;;17.60;37.10;;;;;;5112022;27;20612;-83
2021/12/26 07:15:53;;;;;;;0.60;0.60;;;17.60;37.10;;;;;;5127249;27;20168;-84
2021/12/26 07:18:19;;;;;;;0.95;0.60;;;17.50;37.20;;;;;;5146020;27;20167;-84
2021/12/26 07:20:44;;;;;;;1.05;0.60;;;17.60;37.00;;;;;;5128386;27;20551;-84
2021/12/26 07:23:13;;;;;;;0.60;0.60;;;17.60;36.90;;;;;;5129571;27;20205;-84
2021/12/26 07:25:38;;;;;;;0.90;0.60;;;17.60;36.80;;;;;;5129717;27;20156;-84
2021/12/26 07:28:05;;;;;;;2.00;0.70;;;17.70;36.90;;;;;;5128592;27;20181;-84
2021/12/26 07:30:32;;;;;;;2.50;0.60;;;17.70;36.90;;;;;;5128272;27;20144;-84
2021/12/26 07:32:59;;;;;;;1.83;0.60;;;17.60;36.70;;;;;;5127961;27;20144;-84
2021/12/26 07:35:27;;;;;;;2.17;0.50;;;17.80;36.60;;;;;;5127890;27;20254;-84
2021/12/26 07:37:54;;;;;;;0.95;0.60;;;17.80;36.50;;;;;;5129098;27;20225;-85
2021/12/26 07:40:24;;;;;;;0.85;0.60;;;17.80;36.40;;;;;;5146282;27;20163;-84
2021/12/26 07:42:50;;;;;;;0.73;0.73;;;17.80;36.30;;;;;;5128342;27;20152;-84
2021/12/26 07:45:16;;;;;;;0.55;0.55;;;17.90;36.30;;;;;;5125128;28;20231;-85
2021/12/26 07:47:44;;;;;;;0.63;0.50;;;17.90;36.30;;;;;;5123929;28;20182;-84
2021/12/26 07:50:12;;;;;;;0.68;0.68;;;18.00;36.00;;;;;;5142801;27;20175;-84
2021/12/26 07:52:43;;;;;;;0.80;0.65;;;18.00;35.90;;;;;;5107957;28;20159;-84
2021/12/26 07:55:11;;;;;;;1.75;0.50;;;18.10;35.80;;;;;;5124931;28;20197;-84
2021/12/26 07:57:44;;;;;;;0.70;0.68;;;18.00;35.80;;;;;;5125360;28;20148;-84
2021/12/26 08:00:10;;;;;;;0.60;0.60;;;18.00;35.70;;;;;;5124827;28;20151;-84
2021/12/26 08:02:37;;;;;;;1.60;0.65;;;18.10;35.70;;;;;;5143302;27;20177;-84
2021/12/26 08:05:05;;;;;;;0.52;0.52;;;18.10;35.60;;;;;;5125383;28;20148;-84
2021/12/26 08:07:34;;;;;;;0.75;0.60;;;18.10;35.40;;;;;;5125214;28;20172;-84
2021/12/26 08:09:59;;;;;;;1.88;0.60;;;18.10;35.50;;;;;;5108773;28;20164;-84
2021/12/26 08:12:28;;;;;;;0.68;0.60;;;18.20;35.50;;;;;;5125454;28;20198;-84
2021/12/26 08:14:54;;;;;;;1.27;0.80;;;18.20;35.60;;;;;;5141088;27;20160;-84
2021/12/26 08:17:20;;;;;;;1.85;0.82;;;18.20;35.50;;;;;;5124611;28;20155;-84
2021/12/26 08:19:45;;;;;;;1.65;0.70;;;18.20;35.50;;;;;;5107092;28;20167;-84
2021/12/26 08:22:12;;;;;;;0.65;0.65;;;18.20;35.30;;;;;;5125334;28;20164;-84
2021/12/26 08:24:38;;;;;;;1.25;0.60;;;18.30;35.30;;;;;;5124686;28;20203;-84
2021/12/26 08:27:04;;;;;;;1.23;0.70;;;18.20;35.30;;;;;;5123922;28;20183;-84
2021/12/26 08:29:29;;;;;;;0.65;0.60;;;18.20;35.20;;;;;;5106397;28;20200;-84
2021/12/26 08:31:59;;;;;;;0.68;0.60;;;18.20;35.30;;;;;;5124092;28;20504;-84
2021/12/26 08:34:26;;;;;;;0.95;0.57;;;18.20;35.00;;;;;;5124218;28;20274;-84
2021/12/26 08:37:01;;;;;;;0.73;0.73;;;18.20;35.40;;;;;;5123449;28;20460;-84
2021/12/26 08:39:29;;;;;;;1.95;0.68;;;18.30;35.10;;;;;;5122899;28;20675;-83
2021/12/26 08:41:57;;;;;;;0.55;0.43;;;18.30;35.10;;;;;;5106617;28;20212;-84
2021/12/26 08:44:23;;;;;;;0.77;0.57;;;18.30;35.10;;;;;;5123753;28;20172;-84
2021/12/26 08:46:49;;;;;;;1.00;0.60;;;18.30;35.20;;;;;;5141767;27;20241;-84
2021/12/26 08:49:15;;;;;;;0.40;0.40;;;18.40;35.30;;;;;;5107522;28;20207;-83
2021/12/26 08:51:41;;;;;;;0.50;0.47;;;18.30;35.20;;;;;;5090922;28;20168;-84
2021/12/26 08:54:09;;;;;;;0.60;0.60;;;18.30;35.40;;;;;;5106699;28;20191;-84
2021/12/26 08:56:38;;;;;;;0.50;0.50;;;18.40;35.40;;;;;;5107462;28;20606;-84
2021/12/26 08:59:05;;;;;;;0.70;0.65;;;18.40;35.00;;;;;;5108108;28;20190;-83
2021/12/26 09:01:30;;;;;;;1.15;0.60;;;18.40;35.10;;;;;;5106174;28;20251;-83
2021/12/26 09:03:58;;;;;;;0.93;0.80;;;18.40;35.00;;;;;;5104899;28;20614;-84
2021/12/26 09:06:24;;;;;;;0.50;0.50;;;18.50;34.90;;;;;;5108929;28;20176;-84
2021/12/26 09:08:50;;;;;;;0.63;0.57;;;18.40;35.00;;;;;;5106737;28;20208;-84
2021/12/26 09:11:16;;;;;;;0.65;0.65;;;18.40;35.20;;;;;;5089715;28;20447;-83
2021/12/26 09:13:43;;;;;;;0.80;0.60;;;18.40;35.00;;;;;;5072589;28;20176;-84
2021/12/26 09:16:33;;;;;;;1.13;0.90;;;18.40;35.00;;;;;;5089489;28;20560;-83
2021/12/26 09:19:09;;;;;;;1.10;0.60;;;18.40;34.90;;;;;;5089094;28;20177;-83
2021/12/26 09:21:36;;;;;;;0.80;0.65;;;18.50;34.70;;;;;;5071832;28;20169;-83
2021/12/26 09:24:03;;;;;;;1.38;0.90;;;18.50;34.90;;;;;;5085705;28;20237;-84
2021/12/26 09:26:30;;;;;;;0.90;0.75;;;18.40;35.00;;;;;;5085277;28;20156;-84
2021/12/26 09:28:57;;;;;;;1.08;0.70;;;18.50;35.10;;;;;;5086641;28;20239;-83
2021/12/26 09:31:30;;;;;;;1.98;0.70;;;18.50;35.10;;;;;;5070628;28;20173;-84
2021/12/26 09:33:55;;;;;;;0.77;0.63;;;18.60;35.00;;;;;;5073468;28;20215;-84
2021/12/26 09:36:21;;;;;;;1.05;0.85;;;18.50;35.10;;;;;;5069930;28;20172;-85
2021/12/26 09:38:54;;;;;;;1.15;0.80;;;18.60;35.10;;;;;;5071368;28;20627;-84
2021/12/26 09:41:20;;;;;;;0.93;0.60;;;18.60;35.20;;;;;;5110898;28;20170;-83
2021/12/26 09:43:46;;;;;;;3.45;0.70;;;18.60;35.30;;;;;;5106745;28;20254;-83
2021/12/26 09:46:13;;;;;;;1.85;0.82;;;18.60;35.00;;;;;;5098426;27;20246;-83
2021/12/26 09:48:50;;;;;;;1.00;0.70;;;18.60;35.30;;;;;;5106073;27;20225;-83
2021/12/26 09:51:15;;;;;;;2.55;0.80;;;18.60;34.90;;;;;;5127868;27;20200;-83
2021/12/26 09:53:47;;;;;;;2.53;0.90;;;18.60;34.80;;;;;;5126249;27;20234;-83
2021/12/26 09:56:14;;;;;;;1.60;0.70;;;18.70;35.00;;;;;;5143420;27;20152;-84
2021/12/26 09:59:05;;;;;;;2.38;0.70;;;18.80;35.10;;;;;;5127275;27;20201;-84
2021/12/26 10:01:33;;;;;;;3.22;0.85;;;18.70;35.20;;;;;;5121965;27;20513;-83
2021/12/26 10:04:21;;;;;;;1.58;0.77;;;18.70;35.00;;;;;;5128048;27;20228;-84
2021/12/26 10:06:48;;;;;;;2.22;0.73;;;18.70;35.00;;;;;;5143763;27;20566;-83
2021/12/26 10:09:14;;;;;;;0.93;0.63;;;18.70;36.10;;;;;;5127762;27;20293;-83
2021/12/26 10:11:43;;;;;;;6.25;1.17;;;18.70;35.20;;;;;;5108208;27;20160;-84
2021/12/26 10:14:12;;;;;;;3.33;0.77;;;18.70;35.10;;;;;;5125364;27;20254;-83
2021/12/26 10:16:40;;;;;;;4.85;0.68;;;18.80;35.50;;;;;;5121689;27;20159;-83
2021/12/26 10:19:08;;;;;;;4.53;0.90;;;18.80;35.80;;;;;;5120991;27;20224;-84
2021/12/26 10:21:37;;;;;;;4.88;1.30;;;18.80;35.90;;;;;;5123082;27;20228;-83
2021/12/26 10:24:22;;;;;;;4.22;0.80;;;18.80;35.50;;;;;;5142829;27;20562;-84
2021/12/26 10:26:54;;;;;;;6.07;1.35;;;18.80;35.80;;;;;;5123528;27;20152;-83
2021/12/26 10:29:28;;;;;;;8.43;1.38;;;18.80;35.80;;;;;;5123257;27;20270;-83
2021/12/26 10:31:58;;;;;;;21.70;2.35;;;18.90;35.80;;;;;;5124620;27;20201;-83
2021/12/26 10:34:35;;;;;;;19.92;1.60;;;18.90;36.00;;;;;;5124888;27;20666;-83
2021/12/26 10:37:04;;;;;;;22.80;2.38;;;18.90;35.80;;;;;;5108113;27;20167;-84
2021/12/26 10:39:35;;;;;;;28.02;2.08;;;18.90;36.00;;;;;;5122862;27;20497;-83
2021/12/26 10:42:04;;;;;;;20.20;2.30;;;18.90;36.10;;;;;;5123546;27;20237;-84
2021/12/26 10:44:36;;;;;;;15.30;1.50;;;18.90;36.10;;;;;;5123313;27;20167;-83
2021/12/26 10:47:06;;;;;;;10.00;1.67;;;18.90;36.20;;;;;;5120733;28;20226;-83
2021/12/26 10:49:37;;;;;;;8.70;1.30;;;18.90;36.00;;;;;;5121613;28;20286;-83
2021/12/26 10:52:11;;;;;;;9.52;1.23;;;18.90;36.10;;;;;;5121863;28;20224;-84
2021/12/26 10:54:41;;;;;;;21.98;1.55;;;19.00;36.30;;;;;;5121066;28;20613;-84
2021/12/26 10:57:11;;;;;;;20.25;2.10;;;18.90;36.00;;;;;;5058961;28;20655;-85
2021/12/26 10:59:38;;;;;;;23.73;2.47;;;19.00;36.40;;;;;;5081070;28;20185;-84
2021/12/26 11:02:05;;;;;;;18.75;1.92;;;19.00;36.40;;;;;;5081675;28;20181;-85
2021/12/26 11:04:32;;;;;;;24.23;2.53;;;19.00;36.40;;;;;;5065652;28;20229;-83
2021/12/26 11:07:05;;;;;;;29.80;2.85;;;19.00;36.70;;;;;;5084229;28;20611;-85
2021/12/26 11:09:31;;;;;;;26.45;2.78;;;19.10;36.70;;;;;;5082130;28;20190;-84
2021/12/26 11:12:00;;;;;;;21.73;2.65;;;19.00;36.90;;;;;;5076960;28;20232;-85
2021/12/26 11:14:27;;;;;;;19.73;1.95;;;19.20;36.80;;;;;;5028503;28;20185;-83
2021/12/26 11:16:55;;;;;;;15.65;2.17;;;19.10;36.80;;;;;;5044749;28;20222;-84
2021/12/26 11:19:39;;;;;;;18.45;1.80;;;19.10;36.40;;;;;;5046360;28;20189;-84
2021/12/26 11:22:05;;;;;;;16.73;1.95;;;19.10;36.70;;;;;;5064535;28;20201;-85
2021/12/26 11:24:31;;;;;;;15.77;1.75;;;19.10;36.90;;;;;;5046657;28;20177;-85
2021/12/26 11:26:59;;;;;;;30.52;2.67;;;19.20;37.00;;;;;;5045447;28;20213;-87
2021/12/26 11:29:25;;;;;;;19.80;1.92;;;19.20;37.00;;;;;;5049295;28;20227;-85
2021/12/26 11:31:53;;;;;;;18.25;2.20;;;19.20;37.20;;;;;;5067027;28;20200;-86
2021/12/26 11:34:19;;;;;;;11.48;1.67;;;19.20;37.40;;;;;;5050286;28;20691;-84
2021/12/26 11:36:45;;;;;;;18.02;1.77;;;19.20;37.20;;;;;;5048607;28;20212;-85
2021/12/26 11:39:11;;;;;;;19.70;1.70;;;19.10;37.10;;;;;;5048690;28;20696;-85
2021/12/26 11:42:09;;;;;;;19.63;2.10;;;19.20;37.40;;;;;;5047539;28;20182;-85
2021/12/26 11:45:00;;;;;;;16.10;2.08;;;19.20;37.30;;;;;;5100991;28;20176;-85
2021/12/26 11:47:40;;;;;;;10.25;1.48;;;19.20;37.30;;;;;;5099071;28;20204;-85
2021/12/26 11:50:25;;;;;;;19.42;1.95;;;19.20;37.30;;;;;;5096714;28;20252;-85
2021/12/26 11:53:13;;;;;;;26.92;2.70;;;19.30;37.50;;;;;;5098471;28;20176;-85
2021/12/26 11:56:03;;;;;;;16.20;2.60;;;19.20;37.60;;;;;;5095737;28;20168;-85
2021/12/26 11:58:41;;;;;;;31.33;2.70;;;19.20;37.50;;;;;;5134765;27;20554;-84
2021/12/26 12:01:12;;;;;;;34.35;2.47;;;19.30;37.50;;;;;;5106130;27;20171;-85
2021/12/26 12:03:39;;;;;;;37.22;2.75;;;19.20;37.60;;;;;;5122130;27;20179;-84
2021/12/26 12:06:05;;;;;;;29.92;2.45;;;19.20;37.60;;;;;;5105025;27;20183;-85
2021/12/26 12:08:33;;;;;;;25.23;2.65;;;19.20;37.50;;;;;;5120380;27;20305;-84
2021/12/26 12:11:03;;;;;;;23.67;2.88;;;19.20;37.70;;;;;;5104034;27;20166;-83
2021/12/26 12:13:46;;;;;;;20.83;2.58;;;19.20;37.70;;;;;;5137880;27;20147;-85
2021/12/26 12:16:33;;;;;;;19.15;2.25;;;19.20;37.40;;;;;;5122627;27;20162;-84
2021/12/26 12:19:04;;;;;;;16.90;2.08;;;19.20;37.20;;;;;;5125380;27;20617;-84
2021/12/26 12:21:36;;;;;;;16.88;2.38;;;19.30;36.80;;;;;;5107388;27;20664;-85
2021/12/26 12:24:09;;;;;;;20.83;2.20;;;19.20;37.00;;;;;;5107650;27;20178;-84
2021/12/26 12:26:51;;;;;;;23.90;2.50;;;19.30;37.10;;;;;;5108446;27;20259;-85
2021/12/26 12:29:54;;;;;;;25.27;2.42;;;19.30;37.40;;;;;;5128388;27;20186;-84
2021/12/26 12:32:23;;;;;;;16.02;2.35;;;19.30;37.50;;;;;;5141514;27;20152;-84
2021/12/26 12:34:52;;;;;;;22.63;2.88;;;19.30;37.20;;;;;;5107800;28;20201;-84
2021/12/26 12:37:40;;;;;;;17.65;2.22;;;19.30;37.30;;;;;;5124492;28;20170;-84
2021/12/26 12:40:35;;;;;;;16.15;2.28;;;19.30;37.30;;;;;;5145551;27;20194;-84
2021/12/26 12:43:13;;;;;;;22.90;2.35;;;19.40;37.40;;;;;;5149524;27;20221;-84
2021/12/26 12:46:04;;;;;;;18.40;2.17;;;19.30;37.40;;;;;;5111323;27;20215;-85
2021/12/26 12:48:38;;;;;;;18.80;2.53;;;19.30;37.60;;;;;;5145621;27;20182;-84
2021/12/26 12:51:35;;;;;;;19.58;2.45;;;19.30;37.50;;;;;;5129972;27;20147;-84
2021/12/26 12:54:04;;;;;;;15.95;2.40;;;19.30;37.60;;;;;;5131491;27;20185;-85
2021/12/26 12:56:44;;;;;;;24.63;2.35;;;19.30;37.80;;;;;;5114282;27;20157;-85